sensor_id;sensor_type;location;lat;lon;timestamp;P1;P2;P0
70554;PMS5003;58104;52.744;15.242;2023-02-04T00:01:12;3;2;
70554;PMS5003;58104;52.744;15.242;2023-02-04T00:03:37;1;1;
70554;PMS5003;58104;52.744;15.242;2023-02-04T00:06:03;3;3;
70554;PMS5003;58104;52.744;15.242;2023-02-04T00:08:28;1;1;
70554;PMS5003;58104;52.744;15.242;2023-02-04T00:10:54;2;2;
70554;PMS5003;58104;52.744;15.242;2023-02-04T00:13:19;3;2;
70554;PMS5003;58104;52.744;15.242;2023-02-04T00:15:45;1;1;
70554;PMS5003;58104;52.744;15.242;2023-02-04T00:18:10;4;4;
70554;PMS5003;58104;52.744;15.242;2023-02-04T00:20:35;5;3;
70554;PMS5003;58104;52.744;15.242;2023-02-04T00:23:00;2;2;
70554;PMS5003;58104;52.744;15.242;2023-02-04T00:25:26;4;4;
70554;PMS5003;58104;52.744;15.242;2023-02-04T00:27:51;3;3;
70554;PMS5003;58104;52.744;15.242;2023-02-04T00:30:17;4;3;
70554;PMS5003;58104;52.744;15.242;2023-02-04T00:32:42;2;2;
70554;PMS5003;58104;52.744;15.242;2023-02-04T00:35:08;2;2;
70554;PMS5003;58104;52.744;15.242;2023-02-04T00:37:33;2;2;
70554;PMS5003;58104;52.744;15.242;2023-02-04T00:39:58;2;2;
70554;PMS5003;58104;52.744;15.242;2023-02-04T00:42:23;8;8;
70554;PMS5003;58104;52.744;15.242;2023-02-04T00:44:49;2;2;
70554;PMS5003;58104;52.744;15.242;2023-02-04T00:47:14;3;3;
70554;PMS5003;58104;52.744;15.242;2023-02-04T00:49:40;4;4;
70554;PMS5003;58104;52.744;15.242;2023-02-04T00:52:05;5;3;
70554;PMS5003;58104;52.744;15.242;2023-02-04T00:54:31;5;2;
70554;PMS5003;58104;52.744;15.242;2023-02-04T00:56:56;2;2;
70554;PMS5003;58104;52.744;15.242;2023-02-04T00:59:22;4;3;
70554;PMS5003;58104;52.744;15.242;2023-02-04T01:01:47;2;2;
70554;PMS5003;58104;52.744;15.242;2023-02-04T01:04:12;4;2;
70554;PMS5003;58104;52.744;15.242;2023-02-04T01:06:38;3;3;
70554;PMS5003;58104;52.744;15.242;2023-02-04T01:09:03;2;2;
70554;PMS5003;58104;52.744;15.242;2023-02-04T01:11:29;2;2;
70554;PMS5003;58104;52.744;15.242;2023-02-04T01:13:54;2;1;
70554;PMS5003;58104;52.744;15.242;2023-02-04T01:16:19;4;3;
70554;PMS5003;58104;52.744;15.242;2023-02-04T01:18:45;1;1;
70554;PMS5003;58104;52.744;15.242;2023-02-04T01:21:10;5;3;
70554;PMS5003;58104;52.744;15.242;2023-02-04T01:23:36;2;2;
70554;PMS5003;58104;52.744;15.242;2023-02-04T01:26:01;2;2;
70554;PMS5003;58104;52.744;15.242;2023-02-04T01:28:26;3;3;
70554;PMS5003;58104;52.744;15.242;2023-02-04T01:30:52;5;2;
70554;PMS5003;58104;52.744;15.242;2023-02-04T01:33:17;2;2;
70554;PMS5003;58104;52.744;15.242;2023-02-04T01:35:43;3;3;
70554;PMS5003;58104;52.744;15.242;2023-02-04T01:38:08;4;4;
70554;PMS5003;58104;52.744;15.242;2023-02-04T01:40:34;2;2;
70554;PMS5003;58104;52.744;15.242;2023-02-04T01:42:59;3;3;
70554;PMS5003;58104;52.744;15.242;2023-02-04T01:45:24;3;3;
70554;PMS5003;58104;52.744;15.242;2023-02-04T01:47:50;2;2;
70554;PMS5003;58104;52.744;15.242;2023-02-04T01:50:16;3;3;
70554;PMS5003;58104;52.744;15.242;2023-02-04T01:52:41;3;3;
70554;PMS5003;58104;52.744;15.242;2023-02-04T01:55:10;3;3;
70554;PMS5003;58104;52.744;15.242;2023-02-04T01:57:32;2;2;
70554;PMS5003;58104;52.744;15.242;2023-02-04T01:59:57;2;2;
70554;PMS5003;58104;52.744;15.242;2023-02-04T02:04:48;3;2;
70554;PMS5003;58104;52.744;15.242;2023-02-04T02:07:13;3;3;
70554;PMS5003;58104;52.744;15.242;2023-02-04T02:09:39;4;4;
70554;PMS5003;58104;52.744;15.242;2023-02-04T02:12:04;3;3;
70554;PMS5003;58104;52.744;15.242;2023-02-04T02:14:30;3;3;
70554;PMS5003;58104;52.744;15.242;2023-02-04T02:16:55;2;2;
70554;PMS5003;58104;52.744;15.242;2023-02-04T02:19:22;3;3;
70554;PMS5003;58104;52.744;15.242;2023-02-04T02:21:48;3;3;
70554;PMS5003;58104;52.744;15.242;2023-02-04T02:26:37;2;2;
70554;PMS5003;58104;52.744;15.242;2023-02-04T02:29:02;2;2;
70554;PMS5003;58104;52.744;15.242;2023-02-04T02:31:28;3;3;
70554;PMS5003;58104;52.744;15.242;2023-02-04T02:33:53;2;2;
70554;PMS5003;58104;52.744;15.242;2023-02-04T02:36:18;2;2;
70554;PMS5003;58104;52.744;15.242;2023-02-04T02:38:44;3;3;
70554;PMS5003;58104;52.744;15.242;2023-02-04T02:41:09;3;3;
70554;PMS5003;58104;52.744;15.242;2023-02-04T02:43:35;4;4;
70554;PMS5003;58104;52.744;15.242;2023-02-04T02:46:00;2;2;
70554;PMS5003;58104;52.744;15.242;2023-02-04T02:48:26;3;1;
70554;PMS5003;58104;52.744;15.242;2023-02-04T02:50:51;2;2;
70554;PMS5003;58104;52.744;15.242;2023-02-04T02:53:17;2;2;
70554;PMS5003;58104;52.744;15.242;2023-02-04T02:55:42;3;3;
70554;PMS5003;58104;52.744;15.242;2023-02-04T02:58:09;4;4;
70554;PMS5003;58104;52.744;15.242;2023-02-04T03:00:32;5;2;
70554;PMS5003;58104;52.744;15.242;2023-02-04T03:03:00;4;4;
70554;PMS5003;58104;52.744;15.242;2023-02-04T03:05:23;3;3;
70554;PMS5003;58104;52.744;15.242;2023-02-04T03:07:49;4;2;
70554;PMS5003;58104;52.744;15.242;2023-02-04T03:10:14;4;2;
70554;PMS5003;58104;52.744;15.242;2023-02-04T03:12:40;5;4;
70554;PMS5003;58104;52.744;15.242;2023-02-04T03:15:05;5;4;
70554;PMS5003;58104;52.744;15.242;2023-02-04T03:17:31;5;3;
70554;PMS5003;58104;52.744;15.242;2023-02-04T03:19:56;3;3;
70554;PMS5003;58104;52.744;15.242;2023-02-04T03:22:21;4;3;
70554;PMS5003;58104;52.744;15.242;2023-02-04T03:24:46;5;4;
70554;PMS5003;58104;52.744;15.242;2023-02-04T03:27:13;3;3;
70554;PMS5003;58104;52.744;15.242;2023-02-04T03:29:40;3;3;
70554;PMS5003;58104;52.744;15.242;2023-02-04T03:32:03;3;3;
70554;PMS5003;58104;52.744;15.242;2023-02-04T03:34:28;4;4;
70554;PMS5003;58104;52.744;15.242;2023-02-04T03:36:54;3;2;
70554;PMS5003;58104;52.744;15.242;2023-02-04T03:39:19;3;3;
70554;PMS5003;58104;52.744;15.242;2023-02-04T03:41:44;2;2;
70554;PMS5003;58104;52.744;15.242;2023-02-04T03:44:10;5;3;
70554;PMS5003;58104;52.744;15.242;2023-02-04T03:46:35;2;2;
70554;PMS5003;58104;52.744;15.242;2023-02-04T03:49:01;3;3;
70554;PMS5003;58104;52.744;15.242;2023-02-04T03:51:26;3;2;
70554;PMS5003;58104;52.744;15.242;2023-02-04T03:53:52;2;2;
70554;PMS5003;58104;52.744;15.242;2023-02-04T03:56:17;4;3;
70554;PMS5003;58104;52.744;15.242;2023-02-04T03:58:43;3;3;
70554;PMS5003;58104;52.744;15.242;2023-02-04T04:01:08;1;1;
70554;PMS5003;58104;52.744;15.242;2023-02-04T04:03:33;1;1;
70554;PMS5003;58104;52.744;15.242;2023-02-04T04:05:59;1;1;
70554;PMS5003;58104;52.744;15.242;2023-02-04T04:08:24;3;2;
70554;PMS5003;58104;52.744;15.242;2023-02-04T04:10:50;2;2;
70554;PMS5003;58104;52.744;15.242;2023-02-04T04:13:15;2;2;
70554;PMS5003;58104;52.744;15.242;2023-02-04T04:15:40;2;2;
70554;PMS5003;58104;52.744;15.242;2023-02-04T04:18:06;3;3;
70554;PMS5003;58104;52.744;15.242;2023-02-04T04:20:31;1;1;
70554;PMS5003;58104;52.744;15.242;2023-02-04T04:22:57;2;2;
70554;PMS5003;58104;52.744;15.242;2023-02-04T04:25:22;3;2;
70554;PMS5003;58104;52.744;15.242;2023-02-04T04:27:48;4;4;
70554;PMS5003;58104;52.744;15.242;2023-02-04T04:30:13;2;2;
70554;PMS5003;58104;52.744;15.242;2023-02-04T04:32:39;3;3;
70554;PMS5003;58104;52.744;15.242;2023-02-04T04:35:04;2;2;
70554;PMS5003;58104;52.744;15.242;2023-02-04T04:37:29;4;3;
70554;PMS5003;58104;52.744;15.242;2023-02-04T04:39:55;1;1;
70554;PMS5003;58104;52.744;15.242;2023-02-04T04:42:20;2;2;
70554;PMS5003;58104;52.744;15.242;2023-02-04T04:44:46;2;2;
70554;PMS5003;58104;52.744;15.242;2023-02-04T04:47:11;3;3;
70554;PMS5003;58104;52.744;15.242;2023-02-04T04:49:37;4;2;
70554;PMS5003;58104;52.744;15.242;2023-02-04T04:52:02;3;3;
70554;PMS5003;58104;52.744;15.242;2023-02-04T04:54:27;1;1;
70554;PMS5003;58104;52.744;15.242;2023-02-04T04:56:53;3;3;
70554;PMS5003;58104;52.744;15.242;2023-02-04T04:59:18;4;2;
70554;PMS5003;58104;52.744;15.242;2023-02-04T05:01:44;3;3;
70554;PMS5003;58104;52.744;15.242;2023-02-04T05:04:09;3;3;
70554;PMS5003;58104;52.744;15.242;2023-02-04T05:06:34;2;2;
70554;PMS5003;58104;52.744;15.242;2023-02-04T05:09:00;4;1;
70554;PMS5003;58104;52.744;15.242;2023-02-04T05:11:25;2;0;
70554;PMS5003;58104;52.744;15.242;2023-02-04T05:13:51;4;4;
70554;PMS5003;58104;52.744;15.242;2023-02-04T05:16:16;3;3;
70554;PMS5003;58104;52.744;15.242;2023-02-04T05:18:42;2;2;
70554;PMS5003;58104;52.744;15.242;2023-02-04T05:21:07;4;3;
70554;PMS5003;58104;52.744;15.242;2023-02-04T05:23:32;2;2;
70554;PMS5003;58104;52.744;15.242;2023-02-04T05:25:58;3;3;
70554;PMS5003;58104;52.744;15.242;2023-02-04T05:28:23;4;3;
70554;PMS5003;58104;52.744;15.242;2023-02-04T05:30:49;1;1;
70554;PMS5003;58104;52.744;15.242;2023-02-04T05:33:14;2;2;
70554;PMS5003;58104;52.744;15.242;2023-02-04T05:35:39;2;2;
70554;PMS5003;58104;52.744;15.242;2023-02-04T05:38:05;1;1;
70554;PMS5003;58104;52.744;15.242;2023-02-04T05:40:30;1;1;
70554;PMS5003;58104;52.744;15.242;2023-02-04T05:42:56;2;2;
70554;PMS5003;58104;52.744;15.242;2023-02-04T05:45:21;4;3;
70554;PMS5003;58104;52.744;15.242;2023-02-04T05:47:47;3;3;
70554;PMS5003;58104;52.744;15.242;2023-02-04T05:50:12;3;3;
70554;PMS5003;58104;52.744;15.242;2023-02-04T05:52:38;5;3;
70554;PMS5003;58104;52.744;15.242;2023-02-04T05:55:03;4;4;
70554;PMS5003;58104;52.744;15.242;2023-02-04T05:57:28;2;2;
70554;PMS5003;58104;52.744;15.242;2023-02-04T05:59:54;3;2;
70554;PMS5003;58104;52.744;15.242;2023-02-04T06:02:19;3;2;
70554;PMS5003;58104;52.744;15.242;2023-02-04T06:04:45;4;2;
70554;PMS5003;58104;52.744;15.242;2023-02-04T06:07:10;4;4;
70554;PMS5003;58104;52.744;15.242;2023-02-04T06:09:36;2;2;
70554;PMS5003;58104;52.744;15.242;2023-02-04T06:12:01;2;2;
70554;PMS5003;58104;52.744;15.242;2023-02-04T06:14:26;1;1;
70554;PMS5003;58104;52.744;15.242;2023-02-04T06:16:52;2;2;
70554;PMS5003;58104;52.744;15.242;2023-02-04T06:19:17;4;2;
70554;PMS5003;58104;52.744;15.242;2023-02-04T06:21:43;2;2;
70554;PMS5003;58104;52.744;15.242;2023-02-04T06:24:08;4;2;
70554;PMS5003;58104;52.744;15.242;2023-02-04T06:26:33;4;3;
70554;PMS5003;58104;52.744;15.242;2023-02-04T06:28:59;4;3;
70554;PMS5003;58104;52.744;15.242;2023-02-04T06:31:24;1;1;
70554;PMS5003;58104;52.744;15.242;2023-02-04T06:33:50;2;2;
70554;PMS5003;58104;52.744;15.242;2023-02-04T06:36:15;2;2;
70554;PMS5003;58104;52.744;15.242;2023-02-04T06:38:41;2;2;
70554;PMS5003;58104;52.744;15.242;2023-02-04T06:41:06;2;2;
70554;PMS5003;58104;52.744;15.242;2023-02-04T06:43:31;4;4;
70554;PMS5003;58104;52.744;15.242;2023-02-04T06:45:57;1;1;
70554;PMS5003;58104;52.744;15.242;2023-02-04T06:48:22;3;3;
70554;PMS5003;58104;52.744;15.242;2023-02-04T06:50:48;3;3;
70554;PMS5003;58104;52.744;15.242;2023-02-04T06:53:13;5;3;
70554;PMS5003;58104;52.744;15.242;2023-02-04T06:55:39;3;2;
70554;PMS5003;58104;52.744;15.242;2023-02-04T06:58:04;4;4;
70554;PMS5003;58104;52.744;15.242;2023-02-04T07:00:29;4;2;
70554;PMS5003;58104;52.744;15.242;2023-02-04T07:02:55;4;4;
70554;PMS5003;58104;52.744;15.242;2023-02-04T07:05:20;2;2;
70554;PMS5003;58104;52.744;15.242;2023-02-04T07:07:46;3;3;
70554;PMS5003;58104;52.744;15.242;2023-02-04T07:10:11;6;5;
70554;PMS5003;58104;52.744;15.242;2023-02-04T07:12:36;4;4;
70554;PMS5003;58104;52.744;15.242;2023-02-04T07:15:02;4;2;
70554;PMS5003;58104;52.744;15.242;2023-02-04T07:17:27;3;3;
70554;PMS5003;58104;52.744;15.242;2023-02-04T07:19:53;3;2;
70554;PMS5003;58104;52.744;15.242;2023-02-04T07:22:18;2;2;
70554;PMS5003;58104;52.744;15.242;2023-02-04T07:24:43;5;3;
70554;PMS5003;58104;52.744;15.242;2023-02-04T07:27:09;3;2;
70554;PMS5003;58104;52.744;15.242;2023-02-04T07:29:34;3;3;
70554;PMS5003;58104;52.744;15.242;2023-02-04T07:32:00;3;3;
70554;PMS5003;58104;52.744;15.242;2023-02-04T07:34:25;3;3;
70554;PMS5003;58104;52.744;15.242;2023-02-04T07:36:51;3;3;
70554;PMS5003;58104;52.744;15.242;2023-02-04T07:39:16;3;3;
70554;PMS5003;58104;52.744;15.242;2023-02-04T07:41:41;3;3;
70554;PMS5003;58104;52.744;15.242;2023-02-04T07:44:07;2;2;
70554;PMS5003;58104;52.744;15.242;2023-02-04T07:46:32;4;3;
70554;PMS5003;58104;52.744;15.242;2023-02-04T07:48:58;3;3;
70554;PMS5003;58104;52.744;15.242;2023-02-04T07:51:23;4;4;
70554;PMS5003;58104;52.744;15.242;2023-02-04T07:53:49;2;2;
70554;PMS5003;58104;52.744;15.242;2023-02-04T07:56:14;4;4;
70554;PMS5003;58104;52.744;15.242;2023-02-04T07:58:39;2;2;
70554;PMS5003;58104;52.744;15.242;2023-02-04T08:01:05;4;4;
70554;PMS5003;58104;52.744;15.242;2023-02-04T08:03:30;3;3;
70554;PMS5003;58104;52.744;15.242;2023-02-04T08:05:56;3;3;
70554;PMS5003;58104;52.744;15.242;2023-02-04T08:08:21;4;2;
70554;PMS5003;58104;52.744;15.242;2023-02-04T08:10:47;6;4;
70554;PMS5003;58104;52.744;15.242;2023-02-04T08:13:12;3;3;
70554;PMS5003;58104;52.744;15.242;2023-02-04T08:15:37;5;2;
70554;PMS5003;58104;52.744;15.242;2023-02-04T08:18:03;5;5;
70554;PMS5003;58104;52.744;15.242;2023-02-04T08:20:28;4;4;
70554;PMS5003;58104;52.744;15.242;2023-02-04T08:22:54;4;4;
70554;PMS5003;58104;52.744;15.242;2023-02-04T08:25:19;10;7;
70554;PMS5003;58104;52.744;15.242;2023-02-04T08:27:45;4;2;
70554;PMS5003;58104;52.744;15.242;2023-02-04T08:30:11;7;4;
70554;PMS5003;58104;52.744;15.242;2023-02-04T08:32:36;5;5;
70554;PMS5003;58104;52.744;15.242;2023-02-04T08:35:02;5;4;
70554;PMS5003;58104;52.744;15.242;2023-02-04T08:37:27;5;5;
70554;PMS5003;58104;52.744;15.242;2023-02-04T08:39:52;5;4;
70554;PMS5003;58104;52.744;15.242;2023-02-04T08:42:18;6;4;
70554;PMS5003;58104;52.744;15.242;2023-02-04T08:44:43;6;5;
70554;PMS5003;58104;52.744;15.242;2023-02-04T08:47:09;4;3;
70554;PMS5003;58104;52.744;15.242;2023-02-04T08:49:34;5;5;
70554;PMS5003;58104;52.744;15.242;2023-02-04T08:52:00;8;8;
70554;PMS5003;58104;52.744;15.242;2023-02-04T08:54:25;7;6;
70554;PMS5003;58104;52.744;15.242;2023-02-04T08:56:51;4;4;
70554;PMS5003;58104;52.744;15.242;2023-02-04T08:59:16;7;6;
70554;PMS5003;58104;52.744;15.242;2023-02-04T09:01:42;8;6;
70554;PMS5003;58104;52.744;15.242;2023-02-04T09:04:07;4;4;
70554;PMS5003;58104;52.744;15.242;2023-02-04T09:06:33;7;5;
70554;PMS5003;58104;52.744;15.242;2023-02-04T09:08:58;6;6;
70554;PMS5003;58104;52.744;15.242;2023-02-04T09:11:24;10;7;
70554;PMS5003;58104;52.744;15.242;2023-02-04T09:13:49;6;6;
70554;PMS5003;58104;52.744;15.242;2023-02-04T09:16:14;7;5;
70554;PMS5003;58104;52.744;15.242;2023-02-04T09:18:40;7;5;
70554;PMS5003;58104;52.744;15.242;2023-02-04T09:21:05;5;5;
70554;PMS5003;58104;52.744;15.242;2023-02-04T09:23:31;6;6;
70554;PMS5003;58104;52.744;15.242;2023-02-04T09:25:56;10;8;
70554;PMS5003;58104;52.744;15.242;2023-02-04T09:28:22;5;5;
70554;PMS5003;58104;52.744;15.242;2023-02-04T09:30:47;4;4;
70554;PMS5003;58104;52.744;15.242;2023-02-04T09:33:13;5;4;
70554;PMS5003;58104;52.744;15.242;2023-02-04T09:35:38;7;5;
70554;PMS5003;58104;52.744;15.242;2023-02-04T09:38:04;6;3;
70554;PMS5003;58104;52.744;15.242;2023-02-04T09:40:29;3;3;
70554;PMS5003;58104;52.744;15.242;2023-02-04T09:42:54;5;4;
70554;PMS5003;58104;52.744;15.242;2023-02-04T09:45:22;5;5;
70554;PMS5003;58104;52.744;15.242;2023-02-04T09:47:45;8;6;
70554;PMS5003;58104;52.744;15.242;2023-02-04T09:50:13;4;4;
70554;PMS5003;58104;52.744;15.242;2023-02-04T09:52:36;7;5;
70554;PMS5003;58104;52.744;15.242;2023-02-04T09:55:01;7;4;
70554;PMS5003;58104;52.744;15.242;2023-02-04T09:57:27;5;5;
70554;PMS5003;58104;52.744;15.242;2023-02-04T09:59:52;9;8;
70554;PMS5003;58104;52.744;15.242;2023-02-04T10:02:20;5;5;
70554;PMS5003;58104;52.744;15.242;2023-02-04T10:04:43;13;10;
70554;PMS5003;58104;52.744;15.242;2023-02-04T10:07:09;8;6;
70554;PMS5003;58104;52.744;15.242;2023-02-04T10:09:40;4;4;
70554;PMS5003;58104;52.744;15.242;2023-02-04T10:11:59;6;4;
70554;PMS5003;58104;52.744;15.242;2023-02-04T10:14:25;3;3;
70554;PMS5003;58104;52.744;15.242;2023-02-04T10:16:51;6;4;
70554;PMS5003;58104;52.744;15.242;2023-02-04T10:19:16;4;4;
70554;PMS5003;58104;52.744;15.242;2023-02-04T10:21:42;4;3;
70554;PMS5003;58104;52.744;15.242;2023-02-04T10:24:09;4;4;
70554;PMS5003;58104;52.744;15.242;2023-02-04T10:26:32;7;4;
70554;PMS5003;58104;52.744;15.242;2023-02-04T10:28:58;6;3;
70554;PMS5003;58104;52.744;15.242;2023-02-04T10:31:27;5;5;
70554;PMS5003;58104;52.744;15.242;2023-02-04T10:33:49;6;6;
70554;PMS5003;58104;52.744;15.242;2023-02-04T10:36:14;7;5;
70554;PMS5003;58104;52.744;15.242;2023-02-04T10:38:39;5;5;
70554;PMS5003;58104;52.744;15.242;2023-02-04T10:41:05;1;1;
70554;PMS5003;58104;52.744;15.242;2023-02-04T10:43:30;10;7;
70554;PMS5003;58104;52.744;15.242;2023-02-04T10:45:56;5;3;
70554;PMS5003;58104;52.744;15.242;2023-02-04T10:48:21;5;4;
70554;PMS5003;58104;52.744;15.242;2023-02-04T10:50:47;5;3;
70554;PMS5003;58104;52.744;15.242;2023-02-04T10:53:12;5;5;
70554;PMS5003;58104;52.744;15.242;2023-02-04T10:55:37;4;4;
70554;PMS5003;58104;52.744;15.242;2023-02-04T10:58:03;6;6;
70554;PMS5003;58104;52.744;15.242;2023-02-04T11:00:28;4;4;
70554;PMS5003;58104;52.744;15.242;2023-02-04T11:02:55;7;6;
70554;PMS5003;58104;52.744;15.242;2023-02-04T11:05:20;6;6;
70554;PMS5003;58104;52.744;15.242;2023-02-04T11:07:45;5;4;
70554;PMS5003;58104;52.744;15.242;2023-02-04T11:10:12;4;4;
70554;PMS5003;58104;52.744;15.242;2023-02-04T11:12:36;5;4;
70554;PMS5003;58104;52.744;15.242;2023-02-04T11:15:01;5;4;
70554;PMS5003;58104;52.744;15.242;2023-02-04T11:17:28;5;3;
70554;PMS5003;58104;52.744;15.242;2023-02-04T11:19:52;3;3;
70554;PMS5003;58104;52.744;15.242;2023-02-04T11:22:19;3;3;
70554;PMS5003;58104;52.744;15.242;2023-02-04T11:24:43;3;3;
70554;PMS5003;58104;52.744;15.242;2023-02-04T11:29:34;4;4;
70554;PMS5003;58104;52.744;15.242;2023-02-04T11:32:00;6;5;
70554;PMS5003;58104;52.744;15.242;2023-02-04T11:34:27;4;3;
70554;PMS5003;58104;52.744;15.242;2023-02-04T11:36:53;6;3;
70554;PMS5003;58104;52.744;15.242;2023-02-04T11:39:15;4;4;
70554;PMS5003;58104;52.744;15.242;2023-02-04T11:41:42;3;3;
70554;PMS5003;58104;52.744;15.242;2023-02-04T11:44:06;4;3;
70554;PMS5003;58104;52.744;15.242;2023-02-04T11:46:32;4;3;
70554;PMS5003;58104;52.744;15.242;2023-02-04T11:48:57;5;2;
70554;PMS5003;58104;52.744;15.242;2023-02-04T11:51:25;1;1;
70554;PMS5003;58104;52.744;15.242;2023-02-04T11:53:49;4;4;
70554;PMS5003;58104;52.744;15.242;2023-02-04T11:56:15;3;1;
70554;PMS5003;58104;52.744;15.242;2023-02-04T11:58:39;5;2;
70554;PMS5003;58104;52.744;15.242;2023-02-04T12:01:04;6;4;
70554;PMS5003;58104;52.744;15.242;2023-02-04T12:03:30;3;3;
70554;PMS5003;58104;52.744;15.242;2023-02-04T12:05:55;1;1;
70554;PMS5003;58104;52.744;15.242;2023-02-04T12:08:24;4;2;
70554;PMS5003;58104;52.744;15.242;2023-02-04T12:10:47;4;3;
70554;PMS5003;58104;52.744;15.242;2023-02-04T12:13:12;3;1;
70554;PMS5003;58104;52.744;15.242;2023-02-04T12:15:37;1;1;
70554;PMS5003;58104;52.744;15.242;2023-02-04T12:18:03;3;2;
70554;PMS5003;58104;52.744;15.242;2023-02-04T12:20:27;4;3;
70554;PMS5003;58104;52.744;15.242;2023-02-04T12:22:53;3;2;
70554;PMS5003;58104;52.744;15.242;2023-02-04T12:25:18;1;1;
70554;PMS5003;58104;52.744;15.242;2023-02-04T12:27:44;1;1;
70554;PMS5003;58104;52.744;15.242;2023-02-04T12:30:10;2;2;
70554;PMS5003;58104;52.744;15.242;2023-02-04T12:32:35;3;2;
70554;PMS5003;58104;52.744;15.242;2023-02-04T12:35:00;2;2;
70554;PMS5003;58104;52.744;15.242;2023-02-04T12:37:26;0;0;
70554;PMS5003;58104;52.744;15.242;2023-02-04T12:39:51;1;1;
70554;PMS5003;58104;52.744;15.242;2023-02-04T12:42:16;2;2;
70554;PMS5003;58104;52.744;15.242;2023-02-04T12:44:42;3;3;
70554;PMS5003;58104;52.744;15.242;2023-02-04T12:47:07;3;3;
70554;PMS5003;58104;52.744;15.242;2023-02-04T12:49:33;3;3;
70554;PMS5003;58104;52.744;15.242;2023-02-04T12:51:58;3;3;
70554;PMS5003;58104;52.744;15.242;2023-02-04T12:54:24;1;1;
70554;PMS5003;58104;52.744;15.242;2023-02-04T12:56:49;2;2;
70554;PMS5003;58104;52.744;15.242;2023-02-04T12:59:15;7;4;
70554;PMS5003;58104;52.744;15.242;2023-02-04T13:01:40;2;2;
70554;PMS5003;58104;52.744;15.242;2023-02-04T13:04:06;5;3;
70554;PMS5003;58104;52.744;15.242;2023-02-04T13:06:31;2;2;
70554;PMS5003;58104;52.744;15.242;2023-02-04T13:08:57;4;3;
70554;PMS5003;58104;52.744;15.242;2023-02-04T13:11:22;4;4;
70554;PMS5003;58104;52.744;15.242;2023-02-04T13:13:47;4;4;
70554;PMS5003;58104;52.744;15.242;2023-02-04T13:16:13;3;2;
70554;PMS5003;58104;52.744;15.242;2023-02-04T13:18:38;3;3;
70554;PMS5003;58104;52.744;15.242;2023-02-04T13:21:04;3;3;
70554;PMS5003;58104;52.744;15.242;2023-02-04T13:23:29;6;4;
70554;PMS5003;58104;52.744;15.242;2023-02-04T13:25:55;4;4;
70554;PMS5003;58104;52.744;15.242;2023-02-04T13:28:20;8;5;
70554;PMS5003;58104;52.744;15.242;2023-02-04T13:30:46;5;4;
70554;PMS5003;58104;52.744;15.242;2023-02-04T13:33:11;4;4;
70554;PMS5003;58104;52.744;15.242;2023-02-04T13:35:37;3;3;
70554;PMS5003;58104;52.744;15.242;2023-02-04T13:38:02;4;4;
70554;PMS5003;58104;52.744;15.242;2023-02-04T13:40:28;4;4;
70554;PMS5003;58104;52.744;15.242;2023-02-04T13:42:53;5;5;
70554;PMS5003;58104;52.744;15.242;2023-02-04T13:45:19;3;2;
70554;PMS5003;58104;52.744;15.242;2023-02-04T13:47:44;5;4;
70554;PMS5003;58104;52.744;15.242;2023-02-04T13:50:09;4;3;
70554;PMS5003;58104;52.744;15.242;2023-02-04T13:52:35;4;4;
70554;PMS5003;58104;52.744;15.242;2023-02-04T13:55:01;4;4;
70554;PMS5003;58104;52.744;15.242;2023-02-04T13:57:26;5;3;
70554;PMS5003;58104;52.744;15.242;2023-02-04T13:59:51;3;3;
70554;PMS5003;58104;52.744;15.242;2023-02-04T14:02:17;4;3;
70554;PMS5003;58104;52.744;15.242;2023-02-04T14:04:42;4;4;
70554;PMS5003;58104;52.744;15.242;2023-02-04T14:07:09;5;5;
70554;PMS5003;58104;52.744;15.242;2023-02-04T14:09:33;5;5;
70554;PMS5003;58104;52.744;15.242;2023-02-04T14:11:59;5;5;
70554;PMS5003;58104;52.744;15.242;2023-02-04T14:14:24;5;3;
70554;PMS5003;58104;52.744;15.242;2023-02-04T14:16:50;4;4;
70554;PMS5003;58104;52.744;15.242;2023-02-04T14:19:15;5;5;
70554;PMS5003;58104;52.744;15.242;2023-02-04T14:21:41;6;4;
70554;PMS5003;58104;52.744;15.242;2023-02-04T14:24:06;6;6;
70554;PMS5003;58104;52.744;15.242;2023-02-04T14:26:32;5;5;
70554;PMS5003;58104;52.744;15.242;2023-02-04T14:28:57;3;3;
70554;PMS5003;58104;52.744;15.242;2023-02-04T14:31:22;6;5;
70554;PMS5003;58104;52.744;15.242;2023-02-04T14:33:48;7;5;
70554;PMS5003;58104;52.744;15.242;2023-02-04T14:36:13;7;4;
70554;PMS5003;58104;52.744;15.242;2023-02-04T14:38:39;5;5;
70554;PMS5003;58104;52.744;15.242;2023-02-04T14:41:04;6;5;
70554;PMS5003;58104;52.744;15.242;2023-02-04T14:43:30;6;4;
70554;PMS5003;58104;52.744;15.242;2023-02-04T14:45:55;3;3;
70554;PMS5003;58104;52.744;15.242;2023-02-04T14:48:21;4;4;
70554;PMS5003;58104;52.744;15.242;2023-02-04T14:50:46;4;3;
70554;PMS5003;58104;52.744;15.242;2023-02-04T14:53:12;6;5;
70554;PMS5003;58104;52.744;15.242;2023-02-04T14:55:37;4;4;
70554;PMS5003;58104;52.744;15.242;2023-02-04T14:58:03;4;3;
70554;PMS5003;58104;52.744;15.242;2023-02-04T15:00:28;4;4;
70554;PMS5003;58104;52.744;15.242;2023-02-04T15:02:54;6;6;
70554;PMS5003;58104;52.744;15.242;2023-02-04T15:05:19;3;3;
70554;PMS5003;58104;52.744;15.242;2023-02-04T15:07:45;3;3;
70554;PMS5003;58104;52.744;15.242;2023-02-04T15:10:11;6;4;
70554;PMS5003;58104;52.744;15.242;2023-02-04T15:12:36;6;5;
70554;PMS5003;58104;52.744;15.242;2023-02-04T15:15:01;4;4;
70554;PMS5003;58104;52.744;15.242;2023-02-04T15:17:27;3;3;
70554;PMS5003;58104;52.744;15.242;2023-02-04T15:19:52;7;4;
70554;PMS5003;58104;52.744;15.242;2023-02-04T15:22:17;6;5;
70554;PMS5003;58104;52.744;15.242;2023-02-04T15:24:43;6;6;
70554;PMS5003;58104;52.744;15.242;2023-02-04T15:27:08;7;6;
70554;PMS5003;58104;52.744;15.242;2023-02-04T15:29:34;5;5;
70554;PMS5003;58104;52.744;15.242;2023-02-04T15:31:59;5;4;
70554;PMS5003;58104;52.744;15.242;2023-02-04T15:34:25;5;5;
70554;PMS5003;58104;52.744;15.242;2023-02-04T15:36:50;8;6;
70554;PMS5003;58104;52.744;15.242;2023-02-04T15:39:15;4;4;
70554;PMS5003;58104;52.744;15.242;2023-02-04T15:41:41;5;4;
70554;PMS5003;58104;52.744;15.242;2023-02-04T15:44:06;5;4;
70554;PMS5003;58104;52.744;15.242;2023-02-04T15:46:32;5;5;
70554;PMS5003;58104;52.744;15.242;2023-02-04T15:48:57;3;3;
70554;PMS5003;58104;52.744;15.242;2023-02-04T15:51:23;7;5;
70554;PMS5003;58104;52.744;15.242;2023-02-04T15:53:48;7;7;
70554;PMS5003;58104;52.744;15.242;2023-02-04T15:56:14;7;5;
70554;PMS5003;58104;52.744;15.242;2023-02-04T15:58:39;9;7;
70554;PMS5003;58104;52.744;15.242;2023-02-04T16:01:05;5;5;
70554;PMS5003;58104;52.744;15.242;2023-02-04T16:03:30;9;8;
70554;PMS5003;58104;52.744;15.242;2023-02-04T16:05:56;11;9;
70554;PMS5003;58104;52.744;15.242;2023-02-04T16:08:21;8;8;
70554;PMS5003;58104;52.744;15.242;2023-02-04T16:10:47;11;10;
70554;PMS5003;58104;52.744;15.242;2023-02-04T16:13:12;10;9;
70554;PMS5003;58104;52.744;15.242;2023-02-04T16:15:38;10;9;
70554;PMS5003;58104;52.744;15.242;2023-02-04T16:18:03;12;12;
70554;PMS5003;58104;52.744;15.242;2023-02-04T16:20:29;10;9;
70554;PMS5003;58104;52.744;15.242;2023-02-04T16:22:54;8;8;
70554;PMS5003;58104;52.744;15.242;2023-02-04T16:25:20;9;6;
70554;PMS5003;58104;52.744;15.242;2023-02-04T16:27:45;7;7;